ADDS METAR Data INFO
IDs: Format: Raw Decoded Include TAF

Data at: 1146 UTC 25 Jun 2018

KGGG 251053Z 21006KT 10SM BKN025 BKN029 26/23 A2999 RMK AO2 PRESRR SLP146 T02610233 $
KGGG 251045Z AUTO 20007KT 10SM BKN025 26/23 A2998 RMK AO2 T02610233 $
KGGG 251036Z AUTO 20009KT 10SM SCT025 26/23 A2997 RMK AO2 T02610233 $
KGGG 250953Z AUTO 20010KT 10SM BKN025 26/23 A2994 RMK AO2 SLP128 T02610233 $
KGGG 250923Z AUTO 20014G18KT 10SM BKN022 BKN028 26/23 A2992 RMK AO2 T02610233 $
KGGG 250853Z AUTO 19013G21KT 10SM FEW029 26/23 A2990 RMK AO2 SLP117 T02610233 55003 $
KGGG 250753Z AUTO 18011KT 10SM CLR 26/23 A2989 RMK AO2 SLP113 T02610233 $
KGGG 250653Z AUTO 17010KT 10SM CLR 27/24 A2991 RMK AO2 SLP119 T02670239 $
KGGG 250553Z AUTO 17010KT 10SM CLR 28/23 A2991 RMK AO2 SLP121 T02780233 10339 20278 403610256 52001 $
KGGG 250453Z AUTO 17012KT 10SM CLR 28/23 A2992 RMK AO2 SLP121 T02830233 $
KGGG 250353Z AUTO 16012KT 10SM CLR 29/24 A2991 RMK AO2 SLP120 T02890239 $
KGGG 250253Z 16011KT 10SM CLR 30/24 A2991 RMK AO2 SLP120 T03000239 53009 $
KGGG 250153Z 13007KT 10SM CLR 31/22 A2989 RMK AO2 SLP112 T03060222 $
KGGG 250053Z 16007KT 10SM SCT075 32/23 A2988 RMK AO2 SLP111 T03170228 $
KGGG 242353Z 18011KT 10SM SCT075 34/22 A2988 RMK AO2 SLP110 T03440222 10361 20328 53006 $
KGGG 242253Z 18014KT 10SM SCT060 35/23 A2986 RMK AO2 SLP103 T03500228 $
KGGG 242153Z 16013G19KT 10SM SCT060 36/23 A2986 RMK AO2 SLP101 T03560228 $
KGGG 242053Z 16015G20KT 10SM SCT050 34/21 A2986 RMK AO2 SLP103 T03440211 56017 $
KGGG 241953Z 20010KT 10SM SCT060 34/22 A2988 RMK AO2 SLP109 T03390222 $
KGGG 241853Z 21007KT 10SM SCT050 33/23 A2990 RMK AO2 SLP116 T03330228 $
KGGG 241753Z 19010G15KT 10SM SCT035 33/22 A2991 RMK AO2 SLP120 T03330222 10333 20261 58007 $
KGGG 241653Z 21010KT 10SM SCT035 32/23 A2992 RMK AO2 SLP122 T03220233 $
KGGG 241553Z 21005KT 10SM BKN022 30/23 A2995 RMK AO2 SLP135 T03000233 $
KGGG 241453Z 23006G15KT 10SM BKN022 29/24 A2993 RMK AO2 SLP128 T02890239 51030
KGGG 241353Z 21015G20KT 10SM BKN022 28/24 A2991 RMK AO2 SLP121 T02830239
KGGG 241253Z 18017G22KT 10SM BKN022 27/24 A2987 RMK AO2 SLP105 T02670239
KGGG 241153Z 19011KT 10SM BKN016 26/24 A2984 RMK AO2 SLP097 T02610239 10272 20256 55001
KGGG 241053Z 17014KT 10SM CLR 26/24 A2982 RMK AO2 SLP088 T02560239
KGGG 241007Z AUTO 17014G19KT 10SM SCT017 26/24 A2984 RMK AO2 T02610239
KGGG 240953Z AUTO 17010KT 10SM BKN017 26/24 A2984 RMK AO2 SLP097 T02610239
KGGG 240926Z AUTO 18012KT 10SM BKN017 26/24 A2985 RMK AO2 T02610244
KGGG 240853Z AUTO 18012G20KT 10SM FEW017 26/24 A2985 RMK AO2 SLP098 T02610239 58006
KGGG 240835Z AUTO 20012KT 10SM SCT020 27/24 A2986 RMK AO2 T02670239
KGGG 240753Z AUTO 20012KT 10SM OVC021 27/24 A2987 RMK AO2 SLP107 T02670239
KGGG 240725Z AUTO 19011KT 10SM BKN022 27/24 A2987 RMK AO2 T02670244
KGGG 240653Z AUTO 18009KT 10SM CLR 27/24 A2987 RMK AO2 SLP105 T02670244
KGGG 240553Z AUTO 19011G18KT 10SM CLR 27/24 A2987 RMK AO2 SLP105 T02720244 10339 20272 403500256 53022
KGGG 240453Z AUTO 19010KT 10SM CLR 28/24 A2985 RMK AO2 SLP098 T02830244
KGGG 240353Z AUTO 17012G20KT 10SM CLR 29/24 A2981 RMK AO2 SLP086 T02940244
KGGG 240253Z AUTO 15010KT 10SM CLR 30/24 A2980 RMK AO2 SLP082 T03000239 53008
KGGG 240153Z 15008KT 10SM CLR 31/23 A2978 RMK AO2 SLP076 T03060228
KGGG 240053Z 15006KT 10SM CLR 32/22 A2978 RMK AO2 SLP075 T03220222
KGGG 232353Z 17010KT 10SM CLR 34/21 A2977 RMK AO2 SLP074 T03390211 10350 20317 56010